createdAt,value
2022-11-15T00:02:16.470Z,4.19
2022-11-15T00:04:58.871Z,4.16
2022-11-15T00:07:55.056Z,4.17
2022-11-15T00:10:38.272Z,4.09
2022-11-15T00:13:20.658Z,4.08
2022-11-15T00:16:05.763Z,4.06
2022-11-15T00:18:50.628Z,3.86
2022-11-15T00:21:32.918Z,3.76
2022-11-15T00:24:15.089Z,3.73
2022-11-15T00:26:57.308Z,3.85
2022-11-15T00:29:44.091Z,3.80
2022-11-15T00:32:27.866Z,3.81
2022-11-15T00:35:10.937Z,3.77
2022-11-15T00:37:55.433Z,3.66
2022-11-15T00:40:37.887Z,3.75
2022-11-15T00:43:20.401Z,3.70
2022-11-15T00:46:03.309Z,3.70
2022-11-15T00:48:47.096Z,3.64
2022-11-15T00:51:29.721Z,3.50
2022-11-15T00:54:12.263Z,3.51
2022-11-15T00:56:54.329Z,3.45
2022-11-15T00:59:36.295Z,3.46
2022-11-15T01:02:18.656Z,3.41
2022-11-15T01:05:02.085Z,3.46
2022-11-15T01:07:44.164Z,3.36
2022-11-15T01:10:26.936Z,3.35
2022-11-15T01:13:08.931Z,3.32
2022-11-15T01:15:51.157Z,3.35
2022-11-15T01:18:33.345Z,3.39
2022-11-15T01:21:19.755Z,3.28
2022-11-15T01:24:02.034Z,3.25
2022-11-15T01:26:44.556Z,3.31
2022-11-15T01:29:26.778Z,3.29
2022-11-15T01:32:08.778Z,3.26
2022-11-15T01:34:51.109Z,3.27
2022-11-15T01:37:34.824Z,3.26
2022-11-15T01:40:17.545Z,3.25
2022-11-15T01:42:59.862Z,3.21
2022-11-15T01:45:42.094Z,3.16
2022-11-15T01:48:28.388Z,3.16
2022-11-15T01:51:14.168Z,3.14
2022-11-15T01:54:03.196Z,3.12
2022-11-15T01:56:50.184Z,3.14
2022-11-15T01:59:33.462Z,3.07
2022-11-15T02:02:16.021Z,3.13
2022-11-15T02:04:58.144Z,3.09
2022-11-15T02:07:40.507Z,3.12
2022-11-15T02:10:26.813Z,3.03
2022-11-15T02:13:08.853Z,3.01
2022-11-15T02:16:02.976Z,3.09
2022-11-15T02:18:55.086Z,3.11
2022-11-15T02:21:45.944Z,3.05
2022-11-15T02:25:04.034Z,3.05
2022-11-15T02:28:28.775Z,3.06
2022-11-15T02:31:16.470Z,3.03
2022-11-15T02:34:08.301Z,2.94
2022-11-15T02:37:01.599Z,2.99
2022-11-15T02:39:52.148Z,3.00
2022-11-15T02:42:56.491Z,3.03
2022-11-15T02:45:43.209Z,2.99
2022-11-15T02:48:28.672Z,2.87
2022-11-15T02:51:11.827Z,2.95
2022-11-15T02:53:53.626Z,2.92
2022-11-15T02:56:35.757Z,2.79
2022-11-15T02:59:50.694Z,2.82
2022-11-15T03:03:02.859Z,2.80
2022-11-15T03:05:56.513Z,2.80
2022-11-15T03:08:49.737Z,2.78
2022-11-15T03:11:35.575Z,2.78
2022-11-15T03:14:24.646Z,2.78
2022-11-15T03:17:18.782Z,2.76
2022-11-15T03:20:03.939Z,2.75
2022-11-15T03:22:50.478Z,2.79
2022-11-15T03:25:36.970Z,2.75
2022-11-15T03:28:22.869Z,2.71
2022-11-15T03:31:27.433Z,2.74
2022-11-15T03:34:15.208Z,2.58
2022-11-15T03:36:57.954Z,2.60
2022-11-15T03:39:41.711Z,2.63
2022-11-15T03:42:30.665Z,2.65
2022-11-15T03:45:18.078Z,2.56
2022-11-15T03:48:06.379Z,2.61
2022-11-15T03:50:49.558Z,2.50
2022-11-15T03:53:33.179Z,2.55
2022-11-15T03:56:16.916Z,2.58
2022-11-15T03:58:58.982Z,2.59
2022-11-15T04:01:41.208Z,2.54
2022-11-15T04:04:23.475Z,2.48
2022-11-15T04:07:05.552Z,2.51
2022-11-15T04:10:06.565Z,2.56
2022-11-15T04:12:50.250Z,2.51
2022-11-15T04:15:32.438Z,2.56
2022-11-15T04:18:14.558Z,2.56
2022-11-15T04:21:14.258Z,2.53
2022-11-15T04:24:14.414Z,2.46
2022-11-15T04:26:56.566Z,2.56
2022-11-15T04:29:40.216Z,2.49
2022-11-15T04:32:22.287Z,2.54
2022-11-15T04:35:04.467Z,2.54
2022-11-15T04:37:49.281Z,2.56
2022-11-15T04:40:32.106Z,2.55
2022-11-15T04:43:14.257Z,2.55
2022-11-15T04:45:58.252Z,2.53
2022-11-15T04:48:40.099Z,2.52
2022-11-15T04:51:23.183Z,2.48
2022-11-15T04:54:05.665Z,2.47
2022-11-15T04:56:48.166Z,2.47
2022-11-15T04:59:30.149Z,2.51
2022-11-15T05:02:13.706Z,2.49
2022-11-15T05:04:54.718Z,2.53
2022-11-15T05:07:36.586Z,2.51
2022-11-15T05:10:19.555Z,2.51
2022-11-15T05:13:01.749Z,2.58
2022-11-15T05:15:43.900Z,2.59
2022-11-15T05:18:27.110Z,2.50
2022-11-15T05:21:12.297Z,2.49
2022-11-15T05:23:54.782Z,2.45
2022-11-15T05:26:37.301Z,2.45
2022-11-15T05:29:19.400Z,2.45
2022-11-15T05:32:01.975Z,2.46
2022-11-15T05:34:45.738Z,2.42
2022-11-15T05:37:27.808Z,2.37
2022-11-15T05:40:11.485Z,2.42
2022-11-15T05:42:53.466Z,2.42
2022-11-15T05:45:37.222Z,2.42
2022-11-15T05:48:19.789Z,2.43
2022-11-15T05:51:04.376Z,2.37
2022-11-15T05:53:47.082Z,2.40
2022-11-15T05:56:29.158Z,2.39
2022-11-15T05:59:13.201Z,2.39
2022-11-15T06:01:55.466Z,2.44
2022-11-15T06:04:37.754Z,2.47
2022-11-15T06:07:21.406Z,2.45
2022-11-15T06:10:03.726Z,2.39
2022-11-15T06:12:45.480Z,2.34
2022-11-15T06:15:28.433Z,2.43
2022-11-15T06:18:10.448Z,2.42
2022-11-15T06:20:52.712Z,2.44
2022-11-15T06:23:37.389Z,2.43
2022-11-15T06:26:19.653Z,2.37
2022-11-15T06:29:01.681Z,2.38
2022-11-15T06:31:44.033Z,2.35
2022-11-15T06:34:26.292Z,2.38
2022-11-15T06:37:08.278Z,2.37
2022-11-15T06:39:51.622Z,2.38
2022-11-15T06:42:33.875Z,2.40
2022-11-15T06:45:16.086Z,2.37
2022-11-15T06:47:58.203Z,2.43
2022-11-15T06:50:40.607Z,2.43
2022-11-15T06:53:23.323Z,2.41
2022-11-15T06:56:10.089Z,2.45
2022-11-15T06:58:52.077Z,2.38
2022-11-15T07:01:34.673Z,2.47
2022-11-15T07:04:16.717Z,2.47
2022-11-15T07:06:58.814Z,2.48
2022-11-15T07:09:41.247Z,2.50
2022-11-15T07:12:24.366Z,2.59
2022-11-15T07:15:08.302Z,2.64
2022-11-15T07:17:50.713Z,2.62
2022-11-15T07:20:32.738Z,2.71
2022-11-15T07:23:15.221Z,2.75
2022-11-15T07:26:00.331Z,2.78
2022-11-15T07:28:44.394Z,2.85
2022-11-15T07:31:26.569Z,2.90
2022-11-15T07:34:09.557Z,2.97
2022-11-15T07:36:51.833Z,3.01
2022-11-15T07:39:34.003Z,3.08
2022-11-15T07:42:33.354Z,3.12
2022-11-15T07:45:17.217Z,3.15
2022-11-15T07:47:59.673Z,3.23
2022-11-15T07:50:44.229Z,3.28
2022-11-15T07:53:26.413Z,3.33
2022-11-15T07:56:08.983Z,3.41
2022-11-15T07:58:51.538Z,3.52
2022-11-15T08:01:35.296Z,3.58
2022-11-15T08:04:17.749Z,3.68
2022-11-15T08:07:00.623Z,3.80
2022-11-15T08:09:42.811Z,3.85
2022-11-15T08:12:25.740Z,4.03
2022-11-15T08:15:09.149Z,4.02
2022-11-15T08:17:57.964Z,4.13
2022-11-15T08:20:40.294Z,4.28
2022-11-15T08:23:22.493Z,4.39
2022-11-15T08:26:05.449Z,4.50
2022-11-15T08:28:47.672Z,4.60
2022-11-15T08:31:29.666Z,4.73
2022-11-15T08:34:12.939Z,4.85
2022-11-15T08:36:54.789Z,5.01
2022-11-15T08:39:36.994Z,5.11
2022-11-15T08:42:20.179Z,5.21
2022-11-15T08:45:02.588Z,5.29
2022-11-15T08:47:48.454Z,5.54
2022-11-15T08:50:34.810Z,5.67
2022-11-15T08:53:16.984Z,5.89
2022-11-15T08:55:58.750Z,6.18
2022-11-15T08:58:41.094Z,6.47
2022-11-15T09:01:24.000Z,6.87
2022-11-15T09:04:06.578Z,7.41
2022-11-15T09:06:50.154Z,7.77
2022-11-15T09:09:32.197Z,8.39
2022-11-15T09:12:14.574Z,8.99
2022-11-15T09:14:57.002Z,9.45
2022-11-15T09:17:39.106Z,9.71
2022-11-15T09:20:21.559Z,9.90
2022-11-15T09:23:06.615Z,10.38
2022-11-15T09:25:49.123Z,10.55
2022-11-15T09:28:32.013Z,11.09
2022-11-15T09:31:17.963Z,10.64
2022-11-15T09:34:03.228Z,11.17
2022-11-15T09:36:45.907Z,11.46
2022-11-15T09:39:29.719Z,11.41
2022-11-15T09:42:40.279Z,11.47
2022-11-15T09:45:28.866Z,11.28
2022-11-15T09:48:49.178Z,10.94
2022-11-15T09:51:35.542Z,10.61
2022-11-15T09:54:37.843Z,10.76
2022-11-15T09:56:52.615Z,10.48
2022-11-15T09:59:32.520Z,10.58
2022-11-15T10:02:10.807Z,10.78
2022-11-15T10:04:34.892Z,10.69
2022-11-15T10:07:16.106Z,10.64
2022-11-15T10:09:49.679Z,10.56
2022-11-15T10:12:16.482Z,10.74
2022-11-15T10:14:40.184Z,10.66
2022-11-15T10:17:23.879Z,10.50
2022-11-15T10:20:04.088Z,10.58
2022-11-15T10:22:32.684Z,10.69
2022-11-15T10:25:19.208Z,10.72
2022-11-15T10:27:45.901Z,10.64
2022-11-15T10:30:15.809Z,10.61
2022-11-15T10:32:39.987Z,10.59
2022-11-15T10:35:23.981Z,10.62
2022-11-15T10:37:47.605Z,10.38
2022-11-15T10:40:21.822Z,10.54
2022-11-15T10:42:47.022Z,10.72
2022-11-15T10:45:27.927Z,10.66
2022-11-15T10:47:51.687Z,10.79
2022-11-15T10:50:31.266Z,10.76
2022-11-15T10:52:55.621Z,10.86
2022-11-15T10:55:29.808Z,10.87
2022-11-15T10:57:57.436Z,10.96
2022-11-15T11:00:34.625Z,10.83
2022-11-15T11:03:05.150Z,11.06
2022-11-15T11:05:36.555Z,11.09
2022-11-15T11:08:07.508Z,11.15
2022-11-15T11:13:22.760Z,11.12
2022-11-15T11:15:49.598Z,11.18
2022-11-15T11:18:24.241Z,11.26
2022-11-15T11:20:54.282Z,11.32
2022-11-15T11:23:39.313Z,11.35
2022-11-15T11:26:26.011Z,11.40
2022-11-15T11:28:58.989Z,11.37
2022-11-15T11:31:36.218Z,11.46
2022-11-15T11:34:15.536Z,11.46
2022-11-15T11:36:47.898Z,11.53
2022-11-15T11:39:28.981Z,11.58
2022-11-15T11:42:04.531Z,11.56
2022-11-15T11:44:43.070Z,11.54
2022-11-15T11:47:12.698Z,11.51
2022-11-15T11:49:45.905Z,11.55
2022-11-15T11:52:18.223Z,11.61
2022-11-15T11:54:54.978Z,11.67
2022-11-15T11:57:28.085Z,11.66
2022-11-15T11:59:59.111Z,11.68
2022-11-15T12:02:30.895Z,11.83
2022-11-15T12:05:03.842Z,11.80
2022-11-15T12:07:33.340Z,11.78
2022-11-15T12:10:02.467Z,11.94
2022-11-15T12:12:38.774Z,11.98
2022-11-15T12:15:14.161Z,11.85
2022-11-15T12:17:39.618Z,11.97
2022-11-15T12:20:10.277Z,11.88
2022-11-15T12:22:41.262Z,12.04
2022-11-15T12:25:10.116Z,11.98
2022-11-15T12:27:40.744Z,12.05
2022-11-15T12:30:12.891Z,12.15
2022-11-15T12:32:39.732Z,12.24
2022-11-15T12:35:06.403Z,12.22
2022-11-15T12:37:56.095Z,12.26
2022-11-15T12:40:39.172Z,12.22
2022-11-15T12:43:40.810Z,12.23
2022-11-15T12:46:08.246Z,12.26
2022-11-15T12:48:55.024Z,12.28
2022-11-15T12:51:19.164Z,12.42
2022-11-15T12:53:42.830Z,12.37
2022-11-15T12:56:25.034Z,12.31
2022-11-15T12:58:52.789Z,12.48
2022-11-15T13:01:57.102Z,12.39
2022-11-15T13:04:30.670Z,12.52
2022-11-15T13:06:56.737Z,12.48
2022-11-15T13:09:57.757Z,12.65
2022-11-15T13:12:56.302Z,12.57
2022-11-15T13:15:43.206Z,12.67
2022-11-15T13:18:36.379Z,12.63
2022-11-15T13:21:02.600Z,12.72
2022-11-15T13:23:26.823Z,12.75
2022-11-15T13:26:12.412Z,12.62
2022-11-15T13:28:39.865Z,12.67
2022-11-15T13:31:22.042Z,12.70
2022-11-15T13:33:47.265Z,12.67
2022-11-15T13:36:18.493Z,12.69
2022-11-15T13:38:43.743Z,12.75
2022-11-15T13:41:21.707Z,12.83
2022-11-15T13:43:45.266Z,12.72
2022-11-15T13:46:14.048Z,12.69
2022-11-15T13:48:38.304Z,12.65
2022-11-15T13:51:05.602Z,12.64
2022-11-15T13:53:29.472Z,12.66
2022-11-15T13:55:54.396Z,12.64
2022-11-15T13:58:23.923Z,12.63
2022-11-15T14:00:48.477Z,12.59
2022-11-15T14:03:21.573Z,12.59
2022-11-15T14:05:45.416Z,12.44
2022-11-15T14:08:26.084Z,12.32
2022-11-15T14:10:49.674Z,12.22
2022-11-15T14:13:29.775Z,12.26
2022-11-15T14:15:53.399Z,12.26
2022-11-15T14:18:46.240Z,12.11
2022-11-15T14:21:11.273Z,12.01
2022-11-15T14:23:36.290Z,11.98
2022-11-15T14:26:01.552Z,11.97
2022-11-15T14:28:40.216Z,11.84
2022-11-15T14:31:11.878Z,12.09
2022-11-15T14:33:39.990Z,12.08
2022-11-15T14:36:08.821Z,11.92
2022-11-15T14:38:32.986Z,11.85
2022-11-15T14:40:59.375Z,11.80
2022-11-15T14:43:23.053Z,11.87
2022-11-15T14:45:47.131Z,11.81
2022-11-15T14:48:10.901Z,11.86
2022-11-15T14:50:35.962Z,11.65
2022-11-15T14:52:59.638Z,11.60
2022-11-15T14:55:26.365Z,11.71
2022-11-15T14:57:51.979Z,11.49
2022-11-15T15:00:16.792Z,11.49
2022-11-15T15:02:40.600Z,11.41
2022-11-15T15:05:09.504Z,11.36
2022-11-15T15:07:33.250Z,11.31
2022-11-15T15:10:24.592Z,11.29
2022-11-15T15:12:40.708Z,11.17
2022-11-15T15:15:07.001Z,11.07
2022-11-15T15:17:30.844Z,10.96
2022-11-15T15:19:54.518Z,10.88
2022-11-15T15:22:20.933Z,10.83
2022-11-15T15:24:44.763Z,10.80
2022-11-15T15:27:08.811Z,10.69
2022-11-15T15:29:32.370Z,10.59
2022-11-15T15:31:57.414Z,10.52
2022-11-15T15:34:21.035Z,10.40
2022-11-15T15:36:44.623Z,10.43
2022-11-15T15:39:11.017Z,10.38
2022-11-15T15:41:34.682Z,10.31
2022-11-15T15:43:58.213Z,10.20
2022-11-15T15:46:22.701Z,10.15
2022-11-15T15:48:48.187Z,9.98
2022-11-15T15:51:18.702Z,9.79
2022-11-15T15:53:43.710Z,9.74
2022-11-15T15:56:09.029Z,9.66
2022-11-15T15:58:33.183Z,9.68
2022-11-15T16:00:57.083Z,9.50
2022-11-15T16:03:20.732Z,9.53
2022-11-15T16:05:45.965Z,9.36
2022-11-15T16:08:19.789Z,9.29
2022-11-15T16:10:43.357Z,9.19
2022-11-15T16:13:06.884Z,9.16
2022-11-15T16:15:33.319Z,8.88
2022-11-15T16:17:58.581Z,8.99
2022-11-15T16:20:36.436Z,8.95
2022-11-15T16:23:07.505Z,8.85
2022-11-15T16:25:36.370Z,8.91
2022-11-15T16:27:59.934Z,8.90
2022-11-15T16:30:24.902Z,8.90
2022-11-15T16:32:48.868Z,8.88
2022-11-15T16:35:14.463Z,8.86
2022-11-15T16:37:38.032Z,8.88
2022-11-15T16:40:03.101Z,8.69
2022-11-15T16:42:26.741Z,8.69
2022-11-15T16:44:50.474Z,8.41
2022-11-15T16:47:20.059Z,8.55
2022-11-15T16:49:45.993Z,8.58
2022-11-15T16:52:09.543Z,8.52
2022-11-15T16:54:33.117Z,8.46
2022-11-15T16:56:58.046Z,8.40
2022-11-15T16:59:21.627Z,8.32
2022-11-15T17:01:51.676Z,8.20
2022-11-15T17:04:16.489Z,8.14
2022-11-15T17:06:40.622Z,8.19
2022-11-15T17:09:04.242Z,8.29
2022-11-15T17:11:27.755Z,8.15
2022-11-15T17:13:53.219Z,8.04
2022-11-15T17:16:18.923Z,8.07
2022-11-15T17:18:45.598Z,8.11
2022-11-15T17:21:14.542Z,7.82
2022-11-15T17:23:38.234Z,7.81
2022-11-15T17:26:17.783Z,7.83
2022-11-15T17:28:47.911Z,7.74
2022-11-15T17:31:14.453Z,7.68
2022-11-15T17:33:39.062Z,7.72
2022-11-15T17:36:05.414Z,7.68
2022-11-15T17:38:30.207Z,7.61
2022-11-15T17:41:03.375Z,7.49
2022-11-15T17:43:26.983Z,7.55
2022-11-15T17:45:50.523Z,7.39
2022-11-15T17:48:15.509Z,7.26
2022-11-15T17:50:39.098Z,7.35
2022-11-15T17:53:02.709Z,7.40
2022-11-15T17:55:26.246Z,7.34
2022-11-15T17:57:50.007Z,7.31
2022-11-15T18:00:15.181Z,7.24
2022-11-15T18:02:38.918Z,7.21
2022-11-15T18:05:04.267Z,7.25
2022-11-15T18:07:28.008Z,7.33
2022-11-15T18:09:51.690Z,7.21
2022-11-15T18:12:15.301Z,7.08
2022-11-15T18:14:39.250Z,7.23
2022-11-15T18:17:02.937Z,7.17
2022-11-15T18:19:26.492Z,7.03
2022-11-15T18:21:57.638Z,6.98
2022-11-15T18:24:21.311Z,6.76
2022-11-15T18:26:44.856Z,6.86
2022-11-15T18:29:08.413Z,6.70
2022-11-15T18:31:33.102Z,6.72
2022-11-15T18:33:57.339Z,6.81
2022-11-15T18:36:25.097Z,6.73
2022-11-15T18:38:50.286Z,6.58
2022-11-15T18:41:17.926Z,6.46
2022-11-15T18:43:42.670Z,6.56
2022-11-15T18:46:09.060Z,6.39
2022-11-15T18:48:36.249Z,6.43
2022-11-15T18:51:05.284Z,6.05
2022-11-15T18:53:29.850Z,6.43
2022-11-15T18:55:54.863Z,6.34
2022-11-15T18:58:18.458Z,6.37
2022-11-15T19:00:42.011Z,6.39
2022-11-15T19:03:05.734Z,6.30
2022-11-15T19:05:29.556Z,6.14
2022-11-15T19:07:53.153Z,6.14
2022-11-15T19:10:17.386Z,6.10
2022-11-15T19:12:42.394Z,6.08
2022-11-15T19:15:10.192Z,6.03
2022-11-15T19:17:34.064Z,6.23
2022-11-15T19:19:57.587Z,6.05
2022-11-15T19:22:21.162Z,6.09
2022-11-15T19:24:44.685Z,6.02
2022-11-15T19:27:08.389Z,6.03
2022-11-15T19:29:33.313Z,6.24
2022-11-15T19:31:56.958Z,6.22
2022-11-15T19:34:20.542Z,6.37
2022-11-15T19:36:45.838Z,6.10
2022-11-15T19:39:12.964Z,6.28
2022-11-15T19:41:38.691Z,6.27
2022-11-15T19:44:02.543Z,6.36
2022-11-15T19:46:28.158Z,6.44
2022-11-15T19:48:52.543Z,6.39
2022-11-15T19:51:19.292Z,6.33
2022-11-15T19:53:43.511Z,6.40
2022-11-15T19:56:09.523Z,6.44
2022-11-15T19:58:34.742Z,6.61
2022-11-15T20:01:03.400Z,6.46
2022-11-15T20:03:28.582Z,6.45
2022-11-15T20:05:52.273Z,6.34
2022-11-15T20:08:15.798Z,6.48
2022-11-15T20:10:39.403Z,6.45
2022-11-15T20:13:03.177Z,6.41
2022-11-15T20:15:26.791Z,6.38
2022-11-15T20:17:50.340Z,6.46
2022-11-15T20:20:15.677Z,6.51
2022-11-15T20:22:39.406Z,6.47
2022-11-15T20:25:03.266Z,6.52
2022-11-15T20:27:27.510Z,6.44
2022-11-15T20:29:51.900Z,6.63
2022-11-15T20:32:15.522Z,6.43
2022-11-15T20:34:39.143Z,6.56
2022-11-15T20:37:04.039Z,6.48
2022-11-15T20:39:27.718Z,6.46
2022-11-15T20:41:51.413Z,6.28
2022-11-15T20:44:15.110Z,6.32
2022-11-15T20:46:38.811Z,6.50
2022-11-15T20:49:02.695Z,6.36
2022-11-15T20:51:26.621Z,6.39
2022-11-15T20:53:52.167Z,6.41
2022-11-15T20:56:18.821Z,6.44
2022-11-15T20:58:43.549Z,6.34
2022-11-15T21:01:09.510Z,6.21
2022-11-15T21:03:33.778Z,6.20
2022-11-15T21:05:59.473Z,6.31
2022-11-15T21:08:25.791Z,6.41
2022-11-15T21:11:15.089Z,6.38
2022-11-15T21:13:39.828Z,6.54
2022-11-15T21:16:03.791Z,6.55
2022-11-15T21:18:27.534Z,6.76
2022-11-15T21:20:52.130Z,6.57
2022-11-15T21:23:15.778Z,6.66
2022-11-15T21:25:39.329Z,6.71
2022-11-15T21:28:04.474Z,6.56
2022-11-15T21:30:28.577Z,6.41
2022-11-15T21:32:52.142Z,6.43
2022-11-15T21:35:15.727Z,6.44
2022-11-15T21:37:39.327Z,6.25
2022-11-15T21:40:02.905Z,6.34
2022-11-15T21:42:26.512Z,6.43
2022-11-15T21:44:51.442Z,6.44
2022-11-15T21:47:14.999Z,6.48
2022-11-15T21:49:38.518Z,6.48
2022-11-15T21:52:02.217Z,6.52
2022-11-15T21:54:25.787Z,6.30
2022-11-15T21:56:49.421Z,6.42
2022-11-15T21:59:12.961Z,6.36
2022-11-15T22:01:55.454Z,6.47
2022-11-15T22:04:19.270Z,6.36
2022-11-15T22:06:42.910Z,6.40
2022-11-15T22:09:07.760Z,6.37
2022-11-15T22:11:31.559Z,6.59
2022-11-15T22:13:55.152Z,6.61
2022-11-15T22:16:18.678Z,6.45
2022-11-15T22:18:43.965Z,6.07
2022-11-15T22:21:11.260Z,6.39
2022-11-15T22:23:37.301Z,6.50
2022-11-15T22:26:01.593Z,6.34
2022-11-15T22:28:25.908Z,6.33
2022-11-15T22:30:52.622Z,6.24
2022-11-15T22:33:17.164Z,6.25
2022-11-15T22:35:42.549Z,6.30
2022-11-15T22:38:06.496Z,6.22
2022-11-15T22:40:30.244Z,6.08
2022-11-15T22:42:54.057Z,6.20
2022-11-15T22:45:17.921Z,6.23
2022-11-15T22:47:41.757Z,6.10
2022-11-15T22:50:06.537Z,6.38
2022-11-15T22:52:31.844Z,6.21
2022-11-15T22:54:55.564Z,6.13
2022-11-15T22:57:19.382Z,6.08
2022-11-15T22:59:43.092Z,6.29
2022-11-15T23:02:06.918Z,6.06
2022-11-15T23:04:30.897Z,6.11
2022-11-15T23:06:54.979Z,6.30
2022-11-15T23:09:20.206Z,6.03
2022-11-15T23:12:01.538Z,6.03
2022-11-15T23:14:25.545Z,6.12
2022-11-15T23:16:49.288Z,5.83
2022-11-15T23:19:13.946Z,5.96
2022-11-15T23:21:57.619Z,5.82
2022-11-15T23:24:23.942Z,5.72
2022-11-15T23:26:49.866Z,5.96
2022-11-15T23:29:16.546Z,5.90
2022-11-15T23:32:01.900Z,5.95
2022-11-15T23:34:26.165Z,6.08
2022-11-15T23:36:49.925Z,6.07
2022-11-15T23:39:13.709Z,5.86
2022-11-15T23:41:39.103Z,5.81
2022-11-15T23:44:03.126Z,5.72
2022-11-15T23:46:27.252Z,5.89
2022-11-15T23:48:51.029Z,5.96
2022-11-15T23:51:14.890Z,5.84
2022-11-15T23:53:38.722Z,5.99
2022-11-15T23:56:05.441Z,6.02
2022-11-15T23:58:30.781Z,5.77
